Deora, Colorado
Current Conditions -  °F | °C
As of 2:53 PM on Wednesday 28 Jan 2015 (Local Time) from KLHX Reporting Station
Clear Clear  
Wind Chill: 68°   Ceiling: Unl
Heat Index: 68°   Visibility: 10mi
Dew Point: 21°   Wind: 12mph
Humidity: 17%   Direction: 360°N
Pressure: 30"   Gusts: NA
Location:  37.8567°N, 103.111°W
Report Text: KLHX 282153Z AUTO 36010KT 10SM CLR 20/M06 A3000 RMK AO2 SLP125 T02001061 $
Loading
Personal Weather Stations






























Interactive Weather Map New forecast layout! Learn more

10-Day Weather Forecast

Advertisements
Track Severe Weather on mobile